Rhinecliff, New York
Current Conditions -  °F | °C
As of 2:00 PM on Tuesday 27 Jan 2015 (Local Time) from KPOU Reporting Station
Haze Haze  
Wind Chill:   Ceiling: 2900
Heat Index: 22°   Visibility: 2mi
Dew Point: 13°   Wind: 14mph
Humidity: 68%   Direction: 360°N
Pressure: 29.71"   Gusts: 25mph
Location:  41.92°N, 73.95°W
Report Text: KPOU 271900Z 36012G22KT 2SM HZ BKN029 OVC037 M06/M11 A2971 RMK AO2 T10561106
Loading
Personal Weather Stations






























Interactive Weather Map New forecast layout! Learn more

10-Day Weather Forecast

Advertisements
Track Severe Weather on mobile